sensor_id;sensor_type;location;lat;lon;timestamp;temperature;humidity
44509;DHT22;30214;52.246;14.408;2022-10-13T00:01:29;4.50;99.90
44509;DHT22;30214;52.246;14.408;2022-10-13T00:03:56;4.50;99.90
44509;DHT22;30214;52.246;14.408;2022-10-13T00:06:25;4.40;99.90
44509;DHT22;30214;52.246;14.408;2022-10-13T00:08:52;4.30;99.90
44509;DHT22;30214;52.246;14.408;2022-10-13T00:11:23;4.30;99.90
44509;DHT22;30214;52.246;14.408;2022-10-13T00:13:51;4.20;99.90
44509;DHT22;30214;52.246;14.408;2022-10-13T00:16:21;4.20;99.90
44509;DHT22;30214;52.246;14.408;2022-10-13T00:18:50;4.30;99.90
44509;DHT22;30214;52.246;14.408;2022-10-13T00:21:19;4.20;99.90
44509;DHT22;30214;52.246;14.408;2022-10-13T00:23:48;4.20;99.90
44509;DHT22;30214;52.246;14.408;2022-10-13T00:26:20;4.30;99.90
44509;DHT22;30214;52.246;14.408;2022-10-13T00:28:48;4.30;99.90
44509;DHT22;30214;52.246;14.408;2022-10-13T00:31:17;4.30;99.90
44509;DHT22;30214;52.246;14.408;2022-10-13T00:33:45;4.30;99.90
44509;DHT22;30214;52.246;14.408;2022-10-13T00:36:13;4.20;99.90
44509;DHT22;30214;52.246;14.408;2022-10-13T00:38:40;4.20;99.90
44509;DHT22;30214;52.246;14.408;2022-10-13T00:41:08;4.20;99.90
44509;DHT22;30214;52.246;14.408;2022-10-13T00:43:57;4.20;99.90
44509;DHT22;30214;52.246;14.408;2022-10-13T00:46:28;4.20;99.90
44509;DHT22;30214;52.246;14.408;2022-10-13T00:48:59;4.20;99.90
44509;DHT22;30214;52.246;14.408;2022-10-13T00:51:33;4.20;99.90
44509;DHT22;30214;52.246;14.408;2022-10-13T00:54:02;4.10;99.90
44509;DHT22;30214;52.246;14.408;2022-10-13T00:56:32;4.20;99.90
44509;DHT22;30214;52.246;14.408;2022-10-13T00:59:03;4.10;99.90
44509;DHT22;30214;52.246;14.408;2022-10-13T01:01:31;4.10;99.90
44509;DHT22;30214;52.246;14.408;2022-10-13T01:03:58;4.10;99.90
44509;DHT22;30214;52.246;14.408;2022-10-13T01:06:26;4.00;99.90
44509;DHT22;30214;52.246;14.408;2022-10-13T01:08:54;4.00;99.90
44509;DHT22;30214;52.246;14.408;2022-10-13T01:11:33;4.00;99.90
44509;DHT22;30214;52.246;14.408;2022-10-13T01:14:15;3.90;99.90
44509;DHT22;30214;52.246;14.408;2022-10-13T01:16:52;4.00;99.90
44509;DHT22;30214;52.246;14.408;2022-10-13T01:23:04;4.00;99.90
44509;DHT22;30214;52.246;14.408;2022-10-13T01:25:53;4.00;99.90
44509;DHT22;30214;52.246;14.408;2022-10-13T01:28:40;4.00;99.90
44509;DHT22;30214;52.246;14.408;2022-10-13T01:31:21;3.90;99.90
44509;DHT22;30214;52.246;14.408;2022-10-13T01:33:56;3.90;99.90
44509;DHT22;30214;52.246;14.408;2022-10-13T01:36:34;4.00;99.90
44509;DHT22;30214;52.246;14.408;2022-10-13T01:39:08;4.10;99.90
44509;DHT22;30214;52.246;14.408;2022-10-13T01:41:42;4.10;99.90
44509;DHT22;30214;52.246;14.408;2022-10-13T01:44:15;4.10;99.90
44509;DHT22;30214;52.246;14.408;2022-10-13T01:46:55;4.10;99.90
44509;DHT22;30214;52.246;14.408;2022-10-13T01:49:26;4.00;99.90
44509;DHT22;30214;52.246;14.408;2022-10-13T01:51:55;3.90;99.90
44509;DHT22;30214;52.246;14.408;2022-10-13T01:54:26;3.80;99.90
44509;DHT22;30214;52.246;14.408;2022-10-13T01:56:55;3.90;99.90
44509;DHT22;30214;52.246;14.408;2022-10-13T01:59:24;3.90;99.90
44509;DHT22;30214;52.246;14.408;2022-10-13T02:02:04;3.90;99.90
44509;DHT22;30214;52.246;14.408;2022-10-13T02:04:44;3.90;99.90
44509;DHT22;30214;52.246;14.408;2022-10-13T02:07:19;4.00;99.90
44509;DHT22;30214;52.246;14.408;2022-10-13T02:09:56;4.00;99.90
44509;DHT22;30214;52.246;14.408;2022-10-13T02:12:31;3.90;99.90
44509;DHT22;30214;52.246;14.408;2022-10-13T02:15:03;3.80;99.90
44509;DHT22;30214;52.246;14.408;2022-10-13T02:17:33;3.90;99.90
44509;DHT22;30214;52.246;14.408;2022-10-13T02:20:04;3.80;99.90
44509;DHT22;30214;52.246;14.408;2022-10-13T02:22:37;3.80;99.90
44509;DHT22;30214;52.246;14.408;2022-10-13T02:25:07;3.80;99.90
44509;DHT22;30214;52.246;14.408;2022-10-13T02:27:35;3.70;99.90
44509;DHT22;30214;52.246;14.408;2022-10-13T02:30:02;3.70;99.90
44509;DHT22;30214;52.246;14.408;2022-10-13T02:32:30;3.70;99.90
44509;DHT22;30214;52.246;14.408;2022-10-13T02:34:59;3.60;99.90
44509;DHT22;30214;52.246;14.408;2022-10-13T02:37:26;3.60;99.90
44509;DHT22;30214;52.246;14.408;2022-10-13T02:39:53;3.70;99.90
44509;DHT22;30214;52.246;14.408;2022-10-13T02:42:20;3.70;99.90
44509;DHT22;30214;52.246;14.408;2022-10-13T02:44:47;3.70;99.90
44509;DHT22;30214;52.246;14.408;2022-10-13T02:47:14;3.70;99.90
44509;DHT22;30214;52.246;14.408;2022-10-13T02:49:41;3.70;99.90
44509;DHT22;30214;52.246;14.408;2022-10-13T02:52:10;3.70;99.90
44509;DHT22;30214;52.246;14.408;2022-10-13T02:54:40;3.80;99.90
44509;DHT22;30214;52.246;14.408;2022-10-13T02:57:07;3.80;99.90
44509;DHT22;30214;52.246;14.408;2022-10-13T02:59:34;3.80;99.90
44509;DHT22;30214;52.246;14.408;2022-10-13T03:02:02;3.80;99.90
44509;DHT22;30214;52.246;14.408;2022-10-13T03:04:29;3.80;99.90
44509;DHT22;30214;52.246;14.408;2022-10-13T03:06:58;3.80;99.90
44509;DHT22;30214;52.246;14.408;2022-10-13T03:09:26;3.70;99.90
44509;DHT22;30214;52.246;14.408;2022-10-13T03:11:53;3.70;99.90
44509;DHT22;30214;52.246;14.408;2022-10-13T03:14:20;3.70;99.90
44509;DHT22;30214;52.246;14.408;2022-10-13T03:16:47;3.70;99.90
44509;DHT22;30214;52.246;14.408;2022-10-13T03:19:16;3.70;99.90
44509;DHT22;30214;52.246;14.408;2022-10-13T03:21:43;3.70;99.90
44509;DHT22;30214;52.246;14.408;2022-10-13T03:24:10;3.60;99.90
44509;DHT22;30214;52.246;14.408;2022-10-13T03:26:38;3.60;99.90
44509;DHT22;30214;52.246;14.408;2022-10-13T03:29:05;3.60;99.90
44509;DHT22;30214;52.246;14.408;2022-10-13T03:31:32;3.60;99.90
44509;DHT22;30214;52.246;14.408;2022-10-13T03:34:00;3.60;99.90
44509;DHT22;30214;52.246;14.408;2022-10-13T03:36:27;3.60;99.90
44509;DHT22;30214;52.246;14.408;2022-10-13T03:38:54;3.60;99.90
44509;DHT22;30214;52.246;14.408;2022-10-13T03:41:21;3.60;99.90
44509;DHT22;30214;52.246;14.408;2022-10-13T03:43:51;3.60;99.90
44509;DHT22;30214;52.246;14.408;2022-10-13T03:46:18;3.60;99.90
44509;DHT22;30214;52.246;14.408;2022-10-13T03:48:46;3.60;99.90
44509;DHT22;30214;52.246;14.408;2022-10-13T03:51:15;3.60;99.90
44509;DHT22;30214;52.246;14.408;2022-10-13T03:53:44;3.60;99.90
44509;DHT22;30214;52.246;14.408;2022-10-13T03:56:14;3.60;99.90
44509;DHT22;30214;52.246;14.408;2022-10-13T03:58:50;3.60;99.90
44509;DHT22;30214;52.246;14.408;2022-10-13T04:01:19;3.60;99.90
44509;DHT22;30214;52.246;14.408;2022-10-13T04:03:47;3.50;99.90
44509;DHT22;30214;52.246;14.408;2022-10-13T04:06:15;3.50;99.90
44509;DHT22;30214;52.246;14.408;2022-10-13T04:08:42;3.40;99.90
44509;DHT22;30214;52.246;14.408;2022-10-13T04:11:11;3.40;99.90
44509;DHT22;30214;52.246;14.408;2022-10-13T04:13:41;3.50;99.90
44509;DHT22;30214;52.246;14.408;2022-10-13T04:16:12;3.50;99.90
44509;DHT22;30214;52.246;14.408;2022-10-13T04:18:40;3.40;99.90
44509;DHT22;30214;52.246;14.408;2022-10-13T04:21:08;3.40;99.90
44509;DHT22;30214;52.246;14.408;2022-10-13T04:23:36;3.60;99.90
44509;DHT22;30214;52.246;14.408;2022-10-13T04:26:03;3.50;99.90
44509;DHT22;30214;52.246;14.408;2022-10-13T04:28:32;3.40;99.90
44509;DHT22;30214;52.246;14.408;2022-10-13T04:31:00;3.40;99.90
44509;DHT22;30214;52.246;14.408;2022-10-13T04:33:31;3.40;99.90
44509;DHT22;30214;52.246;14.408;2022-10-13T04:35:58;3.40;99.90
44509;DHT22;30214;52.246;14.408;2022-10-13T04:38:25;3.40;99.90
44509;DHT22;30214;52.246;14.408;2022-10-13T04:40:52;3.40;99.90
44509;DHT22;30214;52.246;14.408;2022-10-13T04:43:19;3.40;99.90
44509;DHT22;30214;52.246;14.408;2022-10-13T04:45:47;3.30;99.90
44509;DHT22;30214;52.246;14.408;2022-10-13T04:48:14;3.40;99.90
44509;DHT22;30214;52.246;14.408;2022-10-13T04:50:42;3.40;99.90
44509;DHT22;30214;52.246;14.408;2022-10-13T04:53:09;3.40;99.90
44509;DHT22;30214;52.246;14.408;2022-10-13T04:55:36;3.40;99.90
44509;DHT22;30214;52.246;14.408;2022-10-13T04:58:03;3.40;99.90
44509;DHT22;30214;52.246;14.408;2022-10-13T05:00:30;3.40;99.90
44509;DHT22;30214;52.246;14.408;2022-10-13T05:02:57;3.40;99.90
44509;DHT22;30214;52.246;14.408;2022-10-13T05:05:24;3.50;99.90
44509;DHT22;30214;52.246;14.408;2022-10-13T05:07:53;3.50;99.90
44509;DHT22;30214;52.246;14.408;2022-10-13T05:10:20;3.50;99.90
44509;DHT22;30214;52.246;14.408;2022-10-13T05:12:47;3.50;99.90
44509;DHT22;30214;52.246;14.408;2022-10-13T05:15:14;3.50;99.90
44509;DHT22;30214;52.246;14.408;2022-10-13T05:17:41;3.60;99.90
44509;DHT22;30214;52.246;14.408;2022-10-13T05:20:09;3.60;99.90
44509;DHT22;30214;52.246;14.408;2022-10-13T05:22:36;3.50;99.90
44509;DHT22;30214;52.246;14.408;2022-10-13T05:25:05;3.50;99.90
44509;DHT22;30214;52.246;14.408;2022-10-13T05:27:32;3.30;99.90
44509;DHT22;30214;52.246;14.408;2022-10-13T05:30:04;3.20;99.90
44509;DHT22;30214;52.246;14.408;2022-10-13T05:32:33;3.20;99.90
44509;DHT22;30214;52.246;14.408;2022-10-13T05:35:00;3.20;99.90
44509;DHT22;30214;52.246;14.408;2022-10-13T05:37:27;3.20;99.90
44509;DHT22;30214;52.246;14.408;2022-10-13T05:39:54;3.30;99.90
44509;DHT22;30214;52.246;14.408;2022-10-13T05:42:23;3.30;99.90
44509;DHT22;30214;52.246;14.408;2022-10-13T05:44:50;3.20;99.90
44509;DHT22;30214;52.246;14.408;2022-10-13T05:47:17;3.10;99.90
44509;DHT22;30214;52.246;14.408;2022-10-13T05:49:44;3.10;99.90
44509;DHT22;30214;52.246;14.408;2022-10-13T05:52:11;3.10;99.90
44509;DHT22;30214;52.246;14.408;2022-10-13T05:54:41;3.10;99.90
44509;DHT22;30214;52.246;14.408;2022-10-13T05:57:15;3.20;99.90
44509;DHT22;30214;52.246;14.408;2022-10-13T05:59:47;3.10;99.90
44509;DHT22;30214;52.246;14.408;2022-10-13T06:02:18;3.10;99.90
44509;DHT22;30214;52.246;14.408;2022-10-13T06:04:49;3.30;99.90
44509;DHT22;30214;52.246;14.408;2022-10-13T06:07:18;3.30;99.90
44509;DHT22;30214;52.246;14.408;2022-10-13T06:09:45;3.40;99.90
44509;DHT22;30214;52.246;14.408;2022-10-13T06:12:12;3.30;99.90
44509;DHT22;30214;52.246;14.408;2022-10-13T06:14:39;3.40;99.90
44509;DHT22;30214;52.246;14.408;2022-10-13T06:17:11;3.40;99.90
44509;DHT22;30214;52.246;14.408;2022-10-13T06:19:41;3.50;99.90
44509;DHT22;30214;52.246;14.408;2022-10-13T06:22:09;3.50;99.90
44509;DHT22;30214;52.246;14.408;2022-10-13T06:24:36;3.50;99.90
44509;DHT22;30214;52.246;14.408;2022-10-13T06:27:07;3.50;99.90
44509;DHT22;30214;52.246;14.408;2022-10-13T06:29:35;3.60;99.90
44509;DHT22;30214;52.246;14.408;2022-10-13T06:32:02;3.70;99.90
44509;DHT22;30214;52.246;14.408;2022-10-13T06:34:31;3.80;99.90
44509;DHT22;30214;52.246;14.408;2022-10-13T06:36:59;3.90;99.90
44509;DHT22;30214;52.246;14.408;2022-10-13T06:39:26;4.00;99.90
44509;DHT22;30214;52.246;14.408;2022-10-13T06:41:53;4.20;99.90
44509;DHT22;30214;52.246;14.408;2022-10-13T06:44:29;4.30;99.90
44509;DHT22;30214;52.246;14.408;2022-10-13T06:47:00;4.40;99.90
44509;DHT22;30214;52.246;14.408;2022-10-13T06:49:28;4.50;99.90
44509;DHT22;30214;52.246;14.408;2022-10-13T06:51:56;4.60;99.90
44509;DHT22;30214;52.246;14.408;2022-10-13T06:54:23;4.80;99.90
44509;DHT22;30214;52.246;14.408;2022-10-13T06:56:50;5.00;99.90
44509;DHT22;30214;52.246;14.408;2022-10-13T06:59:17;5.10;99.90
44509;DHT22;30214;52.246;14.408;2022-10-13T07:01:46;5.20;99.90
44509;DHT22;30214;52.246;14.408;2022-10-13T07:04:14;5.30;99.90
44509;DHT22;30214;52.246;14.408;2022-10-13T07:06:41;5.50;99.90
44509;DHT22;30214;52.246;14.408;2022-10-13T07:09:10;5.60;99.90
44509;DHT22;30214;52.246;14.408;2022-10-13T07:11:37;5.70;99.90
44509;DHT22;30214;52.246;14.408;2022-10-13T07:14:04;5.80;99.90
44509;DHT22;30214;52.246;14.408;2022-10-13T07:16:31;6.00;99.90
44509;DHT22;30214;52.246;14.408;2022-10-13T07:18:58;6.10;99.90
44509;DHT22;30214;52.246;14.408;2022-10-13T07:21:25;6.20;99.90
44509;DHT22;30214;52.246;14.408;2022-10-13T07:23:52;6.30;99.90
44509;DHT22;30214;52.246;14.408;2022-10-13T07:26:21;6.50;99.90
44509;DHT22;30214;52.246;14.408;2022-10-13T07:28:48;6.50;99.90
44509;DHT22;30214;52.246;14.408;2022-10-13T07:31:17;6.60;99.90
44509;DHT22;30214;52.246;14.408;2022-10-13T07:33:47;6.60;99.90
44509;DHT22;30214;52.246;14.408;2022-10-13T07:36:15;6.80;99.90
44509;DHT22;30214;52.246;14.408;2022-10-13T07:38:43;6.90;99.90
44509;DHT22;30214;52.246;14.408;2022-10-13T07:41:11;6.90;99.90
44509;DHT22;30214;52.246;14.408;2022-10-13T07:43:40;6.90;99.90
44509;DHT22;30214;52.246;14.408;2022-10-13T07:46:09;7.00;99.90
44509;DHT22;30214;52.246;14.408;2022-10-13T07:48:38;7.10;99.90
44509;DHT22;30214;52.246;14.408;2022-10-13T07:51:07;7.20;99.90
44509;DHT22;30214;52.246;14.408;2022-10-13T07:53:35;7.20;99.90
44509;DHT22;30214;52.246;14.408;2022-10-13T07:56:04;7.30;99.90
44509;DHT22;30214;52.246;14.408;2022-10-13T07:58:34;7.30;99.90
44509;DHT22;30214;52.246;14.408;2022-10-13T08:01:04;7.30;99.90
44509;DHT22;30214;52.246;14.408;2022-10-13T08:03:37;7.30;99.90
44509;DHT22;30214;52.246;14.408;2022-10-13T08:06:05;7.30;99.90
44509;DHT22;30214;52.246;14.408;2022-10-13T08:08:34;7.40;99.90
44509;DHT22;30214;52.246;14.408;2022-10-13T08:11:03;7.50;99.90
44509;DHT22;30214;52.246;14.408;2022-10-13T08:13:33;7.50;99.90
44509;DHT22;30214;52.246;14.408;2022-10-13T08:16:13;7.60;99.90
44509;DHT22;30214;52.246;14.408;2022-10-13T08:18:40;7.80;99.90
44509;DHT22;30214;52.246;14.408;2022-10-13T08:21:09;7.90;99.90
44509;DHT22;30214;52.246;14.408;2022-10-13T08:23:39;8.00;99.90
44509;DHT22;30214;52.246;14.408;2022-10-13T08:26:13;8.00;99.90
44509;DHT22;30214;52.246;14.408;2022-10-13T08:28:41;8.10;99.90
44509;DHT22;30214;52.246;14.408;2022-10-13T08:31:08;8.20;99.90
44509;DHT22;30214;52.246;14.408;2022-10-13T08:33:37;8.30;99.90
44509;DHT22;30214;52.246;14.408;2022-10-13T08:36:08;8.40;99.90
44509;DHT22;30214;52.246;14.408;2022-10-13T08:38:35;8.50;99.90
44509;DHT22;30214;52.246;14.408;2022-10-13T08:41:13;8.60;99.90
44509;DHT22;30214;52.246;14.408;2022-10-13T08:43:48;8.80;99.90
44509;DHT22;30214;52.246;14.408;2022-10-13T08:46:18;8.90;99.90
44509;DHT22;30214;52.246;14.408;2022-10-13T08:48:50;9.00;99.90
44509;DHT22;30214;52.246;14.408;2022-10-13T08:51:17;9.10;99.90
44509;DHT22;30214;52.246;14.408;2022-10-13T08:53:45;9.40;99.90
44509;DHT22;30214;52.246;14.408;2022-10-13T08:56:17;9.50;99.90
44509;DHT22;30214;52.246;14.408;2022-10-13T08:58:47;9.70;99.90
44509;DHT22;30214;52.246;14.408;2022-10-13T09:01:18;9.80;99.90
44509;DHT22;30214;52.246;14.408;2022-10-13T09:03:51;10.00;99.90
44509;DHT22;30214;52.246;14.408;2022-10-13T09:06:23;10.30;99.90
44509;DHT22;30214;52.246;14.408;2022-10-13T09:08:55;10.50;99.90
44509;DHT22;30214;52.246;14.408;2022-10-13T09:11:27;10.60;99.90
44509;DHT22;30214;52.246;14.408;2022-10-13T09:13:58;10.80;99.90
44509;DHT22;30214;52.246;14.408;2022-10-13T09:16:29;11.10;99.90
44509;DHT22;30214;52.246;14.408;2022-10-13T09:19:20;11.30;99.90
44509;DHT22;30214;52.246;14.408;2022-10-13T09:21:51;11.60;99.90
44509;DHT22;30214;52.246;14.408;2022-10-13T09:24:21;12.00;99.90
44509;DHT22;30214;52.246;14.408;2022-10-13T09:26:51;12.30;99.90
44509;DHT22;30214;52.246;14.408;2022-10-13T09:29:31;12.60;99.90
44509;DHT22;30214;52.246;14.408;2022-10-13T09:32:14;12.80;99.90
44509;DHT22;30214;52.246;14.408;2022-10-13T09:34:44;13.00;99.90
44509;DHT22;30214;52.246;14.408;2022-10-13T09:37:18;13.30;99.90
44509;DHT22;30214;52.246;14.408;2022-10-13T09:39:46;13.50;99.90
44509;DHT22;30214;52.246;14.408;2022-10-13T09:42:28;13.80;99.90
44509;DHT22;30214;52.246;14.408;2022-10-13T09:45:10;13.90;99.90
44509;DHT22;30214;52.246;14.408;2022-10-13T09:47:40;14.00;99.90
44509;DHT22;30214;52.246;14.408;2022-10-13T09:50:16;13.90;99.90
44509;DHT22;30214;52.246;14.408;2022-10-13T09:52:46;13.90;99.90
44509;DHT22;30214;52.246;14.408;2022-10-13T09:55:29;13.90;99.90
44509;DHT22;30214;52.246;14.408;2022-10-13T09:58:02;14.00;99.90
44509;DHT22;30214;52.246;14.408;2022-10-13T10:00:31;14.10;99.90
44509;DHT22;30214;52.246;14.408;2022-10-13T10:03:02;14.20;99.90
44509;DHT22;30214;52.246;14.408;2022-10-13T10:05:40;14.20;99.90
44509;DHT22;30214;52.246;14.408;2022-10-13T10:08:15;14.30;99.90
44509;DHT22;30214;52.246;14.408;2022-10-13T10:10:44;14.40;99.90
44509;DHT22;30214;52.246;14.408;2022-10-13T10:13:13;14.40;99.90
44509;DHT22;30214;52.246;14.408;2022-10-13T10:15:51;14.50;99.90
44509;DHT22;30214;52.246;14.408;2022-10-13T10:18:24;14.60;99.90
44509;DHT22;30214;52.246;14.408;2022-10-13T10:21:05;14.70;99.90
44509;DHT22;30214;52.246;14.408;2022-10-13T10:23:46;14.70;99.90
44509;DHT22;30214;52.246;14.408;2022-10-13T10:26:18;14.80;99.90
44509;DHT22;30214;52.246;14.408;2022-10-13T10:29:00;14.90;99.90
44509;DHT22;30214;52.246;14.408;2022-10-13T10:31:41;15.00;99.90
44509;DHT22;30214;52.246;14.408;2022-10-13T10:34:26;15.10;99.90
44509;DHT22;30214;52.246;14.408;2022-10-13T10:37:12;15.30;99.90
44509;DHT22;30214;52.246;14.408;2022-10-13T10:39:47;15.40;99.90
44509;DHT22;30214;52.246;14.408;2022-10-13T10:45:20;15.40;99.90
44509;DHT22;30214;52.246;14.408;2022-10-13T10:47:51;15.40;99.90
44509;DHT22;30214;52.246;14.408;2022-10-13T10:50:22;15.40;99.90
44509;DHT22;30214;52.246;14.408;2022-10-13T10:53:00;15.40;99.90
44509;DHT22;30214;52.246;14.408;2022-10-13T10:55:34;15.50;99.90
44509;DHT22;30214;52.246;14.408;2022-10-13T10:58:12;15.50;99.90
44509;DHT22;30214;52.246;14.408;2022-10-13T11:00:52;15.50;99.90
44509;DHT22;30214;52.246;14.408;2022-10-13T11:03:34;15.40;99.90
44509;DHT22;30214;52.246;14.408;2022-10-13T11:06:22;15.40;99.90
44509;DHT22;30214;52.246;14.408;2022-10-13T11:08:52;15.50;99.90
44509;DHT22;30214;52.246;14.408;2022-10-13T11:11:39;15.50;99.90
44509;DHT22;30214;52.246;14.408;2022-10-13T11:14:25;15.50;99.90
44509;DHT22;30214;52.246;14.408;2022-10-13T11:17:15;15.60;99.90
44509;DHT22;30214;52.246;14.408;2022-10-13T11:19:45;15.60;99.90
44509;DHT22;30214;52.246;14.408;2022-10-13T11:22:19;15.50;99.90
44509;DHT22;30214;52.246;14.408;2022-10-13T11:31:34;15.60;99.90
44509;DHT22;30214;52.246;14.408;2022-10-13T11:34:29;15.70;99.90
44509;DHT22;30214;52.246;14.408;2022-10-13T11:36:59;15.70;99.90
44509;DHT22;30214;52.246;14.408;2022-10-13T11:43:05;15.80;99.90
44509;DHT22;30214;52.246;14.408;2022-10-13T11:46:15;15.70;99.90
44509;DHT22;30214;52.246;14.408;2022-10-13T11:49:18;15.70;99.90
44509;DHT22;30214;52.246;14.408;2022-10-13T11:52:24;15.70;99.90
44509;DHT22;30214;52.246;14.408;2022-10-13T11:55:03;15.70;99.90
44509;DHT22;30214;52.246;14.408;2022-10-13T11:57:32;15.70;99.90
44509;DHT22;30214;52.246;14.408;2022-10-13T12:00:01;15.70;99.90
44509;DHT22;30214;52.246;14.408;2022-10-13T12:02:47;15.80;99.90
44509;DHT22;30214;52.246;14.408;2022-10-13T12:05:20;15.80;99.90
44509;DHT22;30214;52.246;14.408;2022-10-13T12:07:51;15.90;99.90
44509;DHT22;30214;52.246;14.408;2022-10-13T12:10:24;16.00;99.90
44509;DHT22;30214;52.246;14.408;2022-10-13T12:12:56;16.10;99.90
44509;DHT22;30214;52.246;14.408;2022-10-13T12:15:34;16.10;99.90
44509;DHT22;30214;52.246;14.408;2022-10-13T12:18:19;16.20;99.90
44509;DHT22;30214;52.246;14.408;2022-10-13T12:20:52;16.20;99.90
44509;DHT22;30214;52.246;14.408;2022-10-13T12:23:20;16.30;99.90
44509;DHT22;30214;52.246;14.408;2022-10-13T12:25:49;16.30;99.90
44509;DHT22;30214;52.246;14.408;2022-10-13T12:28:23;16.30;99.90
44509;DHT22;30214;52.246;14.408;2022-10-13T12:30:52;16.40;99.90
44509;DHT22;30214;52.246;14.408;2022-10-13T12:33:37;16.40;99.90
44509;DHT22;30214;52.246;14.408;2022-10-13T12:37:20;16.50;99.90
44509;DHT22;30214;52.246;14.408;2022-10-13T12:40:26;16.50;99.90
44509;DHT22;30214;52.246;14.408;2022-10-13T12:43:58;16.50;99.90
44509;DHT22;30214;52.246;14.408;2022-10-13T12:47:39;16.60;99.90
44509;DHT22;30214;52.246;14.408;2022-10-13T12:51:08;16.60;99.90
44509;DHT22;30214;52.246;14.408;2022-10-13T12:55:03;16.80;99.90
44509;DHT22;30214;52.246;14.408;2022-10-13T12:58:46;16.80;99.90
44509;DHT22;30214;52.246;14.408;2022-10-13T13:05:32;17.00;99.90
44509;DHT22;30214;52.246;14.408;2022-10-13T13:09:28;17.10;99.90
44509;DHT22;30214;52.246;14.408;2022-10-13T13:13:28;17.00;99.90
44509;DHT22;30214;52.246;14.408;2022-10-13T13:24:28;17.10;99.90
44509;DHT22;30214;52.246;14.408;2022-10-13T13:27:46;17.10;99.90
44509;DHT22;30214;52.246;14.408;2022-10-13T13:34:22;17.30;99.90
44509;DHT22;30214;52.246;14.408;2022-10-13T13:38:28;17.20;99.90
44509;DHT22;30214;52.246;14.408;2022-10-13T13:42:31;17.20;99.90
44509;DHT22;30214;52.246;14.408;2022-10-13T13:45:54;17.30;99.90
44509;DHT22;30214;52.246;14.408;2022-10-13T13:49:12;17.30;99.90
44509;DHT22;30214;52.246;14.408;2022-10-13T13:51:58;17.50;99.90
44509;DHT22;30214;52.246;14.408;2022-10-13T13:55:38;17.60;99.90
44509;DHT22;30214;52.246;14.408;2022-10-13T13:59:06;18.20;99.90
44509;DHT22;30214;52.246;14.408;2022-10-13T14:03:17;18.10;99.90
44509;DHT22;30214;52.246;14.408;2022-10-13T14:06:19;17.70;99.90
44509;DHT22;30214;52.246;14.408;2022-10-13T14:08:56;17.50;99.90
44509;DHT22;30214;52.246;14.408;2022-10-13T14:12:29;17.40;99.90
44509;DHT22;30214;52.246;14.408;2022-10-13T14:16:15;17.20;99.90
44509;DHT22;30214;52.246;14.408;2022-10-13T14:19:00;17.10;99.90
44509;DHT22;30214;52.246;14.408;2022-10-13T14:22:27;17.10;99.90
44509;DHT22;30214;52.246;14.408;2022-10-13T14:25:57;17.10;99.90
44509;DHT22;30214;52.246;14.408;2022-10-13T14:29:40;17.10;99.90
44509;DHT22;30214;52.246;14.408;2022-10-13T14:33:01;17.00;99.90
44509;DHT22;30214;52.246;14.408;2022-10-13T14:36:19;16.90;99.90
44509;DHT22;30214;52.246;14.408;2022-10-13T14:39:45;16.80;99.90
44509;DHT22;30214;52.246;14.408;2022-10-13T14:46:15;16.80;99.90
44509;DHT22;30214;52.246;14.408;2022-10-13T14:49:45;16.80;99.90
44509;DHT22;30214;52.246;14.408;2022-10-13T14:53:09;16.80;99.90
44509;DHT22;30214;52.246;14.408;2022-10-13T15:04:06;16.70;99.90
44509;DHT22;30214;52.246;14.408;2022-10-13T15:07:04;16.70;99.90
44509;DHT22;30214;52.246;14.408;2022-10-13T15:09:34;16.70;99.90
44509;DHT22;30214;52.246;14.408;2022-10-13T15:12:01;16.70;99.90
44509;DHT22;30214;52.246;14.408;2022-10-13T15:14:45;16.60;99.90
44509;DHT22;30214;52.246;14.408;2022-10-13T15:23:29;16.60;99.90
44509;DHT22;30214;52.246;14.408;2022-10-13T15:27:09;16.50;99.90
44509;DHT22;30214;52.246;14.408;2022-10-13T15:31:03;16.40;99.90
44509;DHT22;30214;52.246;14.408;2022-10-13T15:38:00;16.30;99.90
44509;DHT22;30214;52.246;14.408;2022-10-13T15:50:19;15.80;99.90
44509;DHT22;30214;52.246;14.408;2022-10-13T15:53:59;15.60;99.90
44509;DHT22;30214;52.246;14.408;2022-10-13T16:01:10;15.50;99.90
44509;DHT22;30214;52.246;14.408;2022-10-13T16:04:10;15.40;99.90
44509;DHT22;30214;52.246;14.408;2022-10-13T16:06:37;15.20;99.90
44509;DHT22;30214;52.246;14.408;2022-10-13T16:09:06;15.10;99.90
44509;DHT22;30214;52.246;14.408;2022-10-13T16:11:33;14.90;99.90
44509;DHT22;30214;52.246;14.408;2022-10-13T16:14:00;14.80;99.90
44509;DHT22;30214;52.246;14.408;2022-10-13T16:16:28;14.70;99.90
44509;DHT22;30214;52.246;14.408;2022-10-13T16:18:55;14.50;99.90
44509;DHT22;30214;52.246;14.408;2022-10-13T16:21:24;14.50;99.90
44509;DHT22;30214;52.246;14.408;2022-10-13T16:23:51;14.40;99.90
44509;DHT22;30214;52.246;14.408;2022-10-13T16:26:45;14.40;99.90
44509;DHT22;30214;52.246;14.408;2022-10-13T16:29:12;14.30;99.90
44509;DHT22;30214;52.246;14.408;2022-10-13T16:31:39;14.30;99.90
44509;DHT22;30214;52.246;14.408;2022-10-13T16:34:21;14.10;99.90
44509;DHT22;30214;52.246;14.408;2022-10-13T16:38:02;14.00;99.90
44509;DHT22;30214;52.246;14.408;2022-10-13T16:49:49;13.60;99.90
44509;DHT22;30214;52.246;14.408;2022-10-13T16:53:31;13.50;99.90
44509;DHT22;30214;52.246;14.408;2022-10-13T16:56:56;13.40;99.90
44509;DHT22;30214;52.246;14.408;2022-10-13T16:59:25;13.40;99.90
44509;DHT22;30214;52.246;14.408;2022-10-13T17:01:53;13.30;99.90
44509;DHT22;30214;52.246;14.408;2022-10-13T17:04:22;13.20;99.90
44509;DHT22;30214;52.246;14.408;2022-10-13T17:06:49;13.10;99.90
44509;DHT22;30214;52.246;14.408;2022-10-13T17:09:16;13.00;99.90
44509;DHT22;30214;52.246;14.408;2022-10-13T17:11:44;12.90;99.90
44509;DHT22;30214;52.246;14.408;2022-10-13T17:14:12;12.90;99.90
44509;DHT22;30214;52.246;14.408;2022-10-13T17:16:39;12.80;99.90
44509;DHT22;30214;52.246;14.408;2022-10-13T17:19:06;12.80;99.90
44509;DHT22;30214;52.246;14.408;2022-10-13T17:21:34;12.70;99.90
44509;DHT22;30214;52.246;14.408;2022-10-13T17:24:04;12.70;99.90
44509;DHT22;30214;52.246;14.408;2022-10-13T17:26:32;12.60;99.90
44509;DHT22;30214;52.246;14.408;2022-10-13T17:28:59;12.60;99.90
44509;DHT22;30214;52.246;14.408;2022-10-13T17:31:27;12.50;99.90
44509;DHT22;30214;52.246;14.408;2022-10-13T17:33:55;12.50;99.90
44509;DHT22;30214;52.246;14.408;2022-10-13T17:36:24;12.40;99.90
44509;DHT22;30214;52.246;14.408;2022-10-13T17:38:54;12.40;99.90
44509;DHT22;30214;52.246;14.408;2022-10-13T17:41:22;12.30;99.90
44509;DHT22;30214;52.246;14.408;2022-10-13T17:44:02;12.30;99.90
44509;DHT22;30214;52.246;14.408;2022-10-13T18:03:15;12.20;99.90
44509;DHT22;30214;52.246;14.408;2022-10-13T18:05:57;12.10;99.90